Zenica, Bosnia and Herzegovina
Current Conditions -  °F | °C
As of 4:30 PM on Thursday 30 Oct 2014 (Local Time) from LQSA Reporting Station
Haze Haze  
Wind Chill: 46°   Ceiling: 1500
Heat Index: 46°   Visibility: 2.5mi
Dew Point: 41°   Wind: 0mph
Humidity: 81%   Direction: NA
Pressure: 30.24"   Gusts: NA
Location:  44.2°N, 17.91°E
Report Text: LQSA 301430Z 00000KT 4000 BR FEW010 OVC015 08/05 Q1024 NOSIG
Loading
Personal Weather Stations






























Interactive Weather Map
Tropical Storm Tracking
New forecast layout! Learn more

10-Day Weather Forecast

Advertisements
Track Severe Weather on mobile